createdAt,value
2022-08-04T13:22:23.566Z,969.35
2022-08-04T13:23:23.599Z,969.37
2022-08-04T13:26:43.532Z,969.34
2022-08-04T13:26:44.385Z,969.32
2022-08-04T13:27:24.120Z,969.30
2022-08-04T13:28:23.937Z,969.29
2022-08-04T13:29:57.891Z,969.28
2022-08-04T13:30:24.273Z,969.37
2022-08-04T13:30:25.742Z,969.31
2022-08-04T13:31:24.132Z,969.28
2022-08-04T13:32:24.232Z,969.27
2022-08-04T13:33:24.279Z,969.20
2022-08-04T13:34:24.344Z,969.19
2022-08-04T13:35:54.851Z,969.20
2022-08-04T13:36:24.475Z,969.21
2022-08-04T13:37:24.783Z,969.21
2022-08-04T13:38:24.616Z,969.14
2022-08-04T13:39:24.720Z,969.13
2022-08-04T13:40:24.774Z,969.12
2022-08-04T13:41:27.750Z,969.10
2022-08-04T13:42:24.882Z,969.09
2022-08-04T13:44:15.769Z,969.12
2022-08-04T13:44:25.016Z,969.13
2022-08-04T13:45:25.116Z,969.11
2022-08-04T13:46:27.069Z,969.11
2022-08-04T13:47:25.388Z,969.09
2022-08-04T13:48:32.145Z,969.08
2022-08-04T13:49:42.810Z,969.11
2022-08-04T13:50:25.463Z,969.09
2022-08-04T13:51:25.535Z,969.09
2022-08-04T13:52:25.577Z,969.06
2022-08-04T13:53:29.297Z,969.03
2022-08-04T13:54:25.708Z,969.06
2022-08-04T13:55:25.777Z,969.04
2022-08-04T13:56:25.874Z,969.02
2022-08-04T13:57:25.920Z,969.01
2022-08-04T13:58:25.993Z,969.00
2022-08-04T13:59:26.056Z,969.03
2022-08-04T14:00:30.109Z,969.03
2022-08-04T14:01:35.259Z,969.01
2022-08-04T14:02:26.264Z,969.02
2022-08-04T14:03:26.362Z,969.01
2022-08-04T14:04:26.402Z,969.00
2022-08-04T14:05:28.744Z,969.00
2022-08-04T14:06:26.545Z,968.99
2022-08-04T14:07:26.699Z,969.00
2022-08-04T14:08:26.708Z,969.00
2022-08-04T14:09:35.046Z,968.99
2022-08-04T14:10:26.825Z,969.02
2022-08-04T14:12:08.881Z,969.01
2022-08-04T14:12:45.103Z,969.02
2022-08-04T14:13:27.058Z,969.02
2022-08-04T14:14:27.102Z,969.04
2022-08-04T14:15:27.169Z,968.99
2022-08-04T14:16:27.243Z,968.99
2022-08-04T14:17:29.996Z,968.99
2022-08-04T14:18:27.607Z,968.98
2022-08-04T14:19:35.792Z,968.94
2022-08-04T14:20:27.518Z,968.95
2022-08-04T14:21:48.623Z,968.92
2022-08-04T14:22:27.665Z,968.91
2022-08-04T14:35:15.078Z,968.83
2022-08-04T14:36:04.511Z,968.87
2022-08-04T14:37:18.300Z,968.85
2022-08-04T14:38:03.576Z,968.84
2022-08-04T14:39:02.880Z,968.82
2022-08-04T14:40:17.621Z,968.82
2022-08-04T14:41:02.988Z,968.82
2022-08-04T14:42:03.042Z,968.77
2022-08-04T14:43:07.597Z,968.81
2022-08-04T14:44:03.196Z,968.82
2022-08-04T14:45:03.291Z,968.83
2022-08-04T14:46:03.323Z,968.85
2022-08-04T14:47:03.392Z,968.95
2022-08-04T14:48:03.463Z,968.98
2022-08-04T14:49:03.537Z,968.98
2022-08-04T14:50:03.631Z,968.94
2022-08-04T14:51:03.671Z,968.91
2022-08-04T14:52:03.776Z,968.91
2022-08-04T14:53:03.814Z,968.91
2022-08-04T14:54:07.925Z,968.90
2022-08-04T14:55:03.965Z,968.87
2022-08-04T14:56:04.024Z,968.84
2022-08-04T14:57:04.136Z,968.85
2022-08-04T14:58:36.109Z,968.87
2022-08-04T14:59:04.241Z,968.81
2022-08-04T15:00:10.197Z,968.77
2022-08-04T15:01:10.113Z,968.78
2022-08-04T15:02:04.557Z,968.80
2022-08-04T15:03:04.521Z,968.77
2022-08-04T15:04:04.591Z,968.78
2022-08-04T15:05:55.002Z,968.75
2022-08-04T15:06:10.887Z,968.73
2022-08-04T15:07:04.985Z,968.69
2022-08-04T15:08:04.880Z,968.63
2022-08-04T15:09:04.980Z,968.65
2022-08-04T15:10:05.020Z,968.60
2022-08-04T15:11:05.089Z,968.59
2022-08-04T15:12:05.157Z,968.65
2022-08-04T15:13:05.229Z,968.58
2022-08-04T15:16:14.185Z,968.63
2022-08-04T15:20:57.143Z,968.61
2022-08-04T15:21:47.291Z,968.61
2022-08-04T15:22:47.356Z,968.59
2022-08-04T15:23:47.597Z,968.57
2022-08-04T15:36:43.523Z,968.51
2022-08-04T15:37:43.600Z,968.50
2022-08-04T15:38:43.633Z,968.53
2022-08-04T15:39:43.698Z,968.49
2022-08-04T15:40:43.769Z,968.51
2022-08-04T16:35:49.331Z,968.33
2022-08-04T16:36:49.361Z,968.18
2022-08-04T16:37:49.422Z,967.91
2022-08-04T16:38:49.477Z,967.86
2022-08-04T16:39:51.486Z,967.82
2022-08-04T16:40:49.597Z,967.81
2022-08-04T16:41:49.657Z,967.79
2022-08-04T16:42:49.718Z,967.86
2022-08-04T16:43:49.780Z,967.83
2022-08-04T16:44:53.703Z,967.86
2022-08-04T16:45:49.902Z,967.87
2022-08-04T16:47:22.261Z,967.90
2022-08-04T16:47:50.012Z,967.88
2022-08-04T16:48:50.095Z,967.80
2022-08-04T16:49:51.899Z,967.78
2022-08-04T16:50:50.271Z,967.78
2022-08-04T16:51:50.249Z,967.75
2022-08-04T16:52:50.310Z,967.77
2022-08-04T16:54:02.845Z,967.76
2022-08-04T16:54:50.427Z,967.79
2022-08-04T16:55:50.523Z,967.75
2022-08-04T16:56:50.555Z,967.76
2022-08-04T16:57:50.608Z,967.77
2022-08-04T16:58:54.384Z,967.77
2022-08-04T16:59:50.723Z,967.75
2022-08-04T17:00:50.816Z,967.74
2022-08-04T17:01:50.890Z,967.73
2022-08-04T17:02:50.903Z,967.71
2022-08-04T17:03:56.187Z,967.70
2022-08-04T17:05:12.047Z,967.72
2022-08-04T17:05:51.102Z,967.70
2022-08-04T17:06:51.160Z,967.71
2022-08-04T17:08:07.087Z,967.71
2022-08-04T17:08:51.255Z,967.68
2022-08-04T17:09:51.316Z,967.68
2022-08-04T17:10:51.375Z,967.65
2022-08-04T17:11:51.458Z,967.68
2022-08-04T17:12:59.522Z,967.67
2022-08-04T17:14:03.722Z,967.67
2022-08-04T17:14:51.635Z,967.62
2022-08-04T17:15:51.665Z,967.66
2022-08-04T17:16:51.728Z,967.63
2022-08-04T17:18:01.464Z,967.65
2022-08-04T17:18:51.868Z,967.62
2022-08-04T17:19:51.961Z,967.62
2022-08-04T17:21:01.187Z,967.60
2022-08-04T17:21:52.018Z,967.65
2022-08-04T17:22:52.084Z,967.67
2022-08-04T17:24:13.338Z,967.66
2022-08-04T17:25:13.264Z,967.62
2022-08-04T17:25:52.781Z,967.61
2022-08-04T17:26:54.402Z,967.62
2022-08-04T17:28:08.750Z,967.62
2022-08-04T17:28:52.432Z,967.60
2022-08-04T17:29:52.605Z,967.57
2022-08-04T17:30:52.559Z,967.57
2022-08-04T17:31:53.516Z,967.58
2022-08-04T17:32:52.666Z,967.55
2022-08-04T17:33:54.797Z,967.53
2022-08-04T17:34:52.786Z,967.55
2022-08-04T17:35:52.836Z,967.49
2022-08-04T17:36:52.902Z,967.48
2022-08-04T17:37:53.645Z,967.50
2022-08-04T17:38:53.064Z,967.48
2022-08-04T17:39:53.216Z,967.47
2022-08-04T17:40:53.133Z,967.46
2022-08-04T17:41:53.189Z,967.45
2022-08-04T17:42:53.303Z,967.43
2022-08-04T17:44:03.468Z,967.44
2022-08-04T17:44:53.366Z,967.41
2022-08-04T17:45:56.853Z,967.43
2022-08-04T17:46:53.481Z,967.44
2022-08-04T17:47:53.560Z,967.47
2022-08-04T17:48:53.601Z,967.42
2022-08-04T17:49:53.656Z,967.42
2022-08-04T17:50:53.723Z,967.41
2022-08-04T17:52:05.297Z,967.44
2022-08-04T17:52:53.857Z,967.45
2022-08-04T17:54:02.529Z,967.48
2022-08-04T17:54:53.944Z,967.48
2022-08-04T17:55:54.002Z,967.49
2022-08-04T17:56:54.090Z,967.46
2022-08-04T17:57:54.118Z,967.43
2022-08-04T17:58:54.182Z,967.42
2022-08-04T17:59:56.771Z,967.43
2022-08-04T18:01:05.268Z,967.48
2022-08-04T18:01:54.382Z,967.45
2022-08-04T18:02:54.497Z,967.43
2022-08-04T18:03:54.486Z,967.44
2022-08-04T18:05:06.818Z,967.42
2022-08-04T18:06:03.240Z,967.46
2022-08-04T18:06:54.665Z,967.43
2022-08-04T18:08:34.653Z,967.43
2022-08-04T18:08:57.957Z,967.44
2022-08-04T18:10:02.260Z,967.42
2022-08-04T18:10:56.753Z,967.42
2022-08-04T18:11:54.956Z,967.42
2022-08-04T18:12:54.986Z,967.45
2022-08-04T18:13:57.128Z,967.42
2022-08-04T18:14:55.106Z,967.43
2022-08-04T18:15:55.161Z,967.41
2022-08-04T18:16:55.845Z,967.43
2022-08-04T18:18:21.330Z,967.40
2022-08-04T18:18:55.332Z,967.44
2022-08-04T18:19:55.583Z,967.40
2022-08-04T18:20:55.450Z,967.44
2022-08-04T18:22:00.625Z,967.42
2022-08-04T18:22:55.565Z,967.44
2022-08-04T18:23:55.639Z,967.46
2022-08-04T18:24:56.821Z,967.50
2022-08-04T18:25:55.735Z,967.48
2022-08-04T18:26:55.795Z,967.46
2022-08-04T18:27:55.851Z,967.49
2022-08-04T18:28:55.909Z,967.50
2022-08-04T18:30:33.544Z,967.50
2022-08-04T18:30:56.381Z,967.49
2022-08-04T18:31:56.104Z,967.51
2022-08-04T18:33:10.579Z,967.50
2022-08-04T18:33:59.037Z,967.52
2022-08-04T18:34:56.252Z,967.50
2022-08-04T18:36:34.732Z,967.50
2022-08-04T18:36:59.246Z,967.54
2022-08-04T18:38:58.605Z,967.56
2022-08-04T18:40:10.227Z,967.56
2022-08-04T18:40:56.665Z,967.58
2022-08-04T18:42:03.670Z,967.60
2022-08-04T18:42:56.753Z,967.58
2022-08-04T18:43:56.929Z,967.58
2022-08-04T18:44:57.432Z,967.57
2022-08-04T18:45:56.893Z,967.57
2022-08-04T18:46:56.936Z,967.60
2022-08-04T18:47:58.669Z,967.62
2022-08-04T18:48:57.051Z,967.62
2022-08-04T18:51:01.291Z,967.61
2022-08-04T18:51:09.674Z,967.63
2022-08-04T18:51:57.221Z,967.65
2022-08-04T18:52:57.278Z,967.64
2022-08-04T18:53:59.028Z,967.62
2022-08-04T18:54:57.413Z,967.59
2022-08-04T18:55:58.472Z,967.63
2022-08-04T18:57:25.134Z,967.60
2022-08-04T18:58:00.671Z,967.62
2022-08-04T18:58:57.621Z,967.66
2022-08-04T18:59:57.682Z,967.64
2022-08-04T19:01:00.393Z,967.65
2022-08-04T19:02:16.469Z,967.71
2022-08-04T19:02:57.849Z,967.70
2022-08-04T19:03:58.106Z,967.72
2022-08-04T19:04:57.964Z,967.72
2022-08-04T19:05:58.346Z,967.76
2022-08-04T19:06:58.072Z,967.75
2022-08-04T19:08:01.805Z,967.75
2022-08-04T19:08:58.204Z,967.75
2022-08-04T19:09:59.865Z,967.75
2022-08-04T19:10:59.654Z,967.75
2022-08-04T19:11:58.358Z,967.76
2022-08-04T19:12:58.410Z,967.78
2022-08-04T19:13:59.007Z,967.80
2022-08-04T19:15:10.589Z,967.80
2022-08-04T19:15:58.586Z,967.77
2022-08-04T19:16:58.641Z,967.79
2022-08-04T19:18:00.245Z,967.80
2022-08-04T19:18:58.771Z,967.82
2022-08-04T19:19:58.802Z,967.84
2022-08-04T19:20:58.871Z,967.83
2022-08-04T19:22:02.522Z,967.84
2022-08-04T19:24:27.417Z,967.86
2022-08-04T19:24:27.807Z,967.87
2022-08-04T19:24:59.105Z,967.86
2022-08-04T19:26:04.734Z,967.83
2022-08-04T19:26:59.201Z,967.82
2022-08-04T19:27:59.266Z,967.88
2022-08-04T19:28:59.343Z,967.86
2022-08-04T19:29:59.363Z,967.86
2022-08-04T19:30:59.418Z,967.90
2022-08-04T19:31:59.476Z,967.90
2022-08-04T19:32:59.531Z,967.90
2022-08-04T19:34:04.805Z,967.90
2022-08-04T19:34:59.635Z,967.89
2022-08-04T19:35:59.695Z,967.89
2022-08-04T19:36:59.759Z,967.94
2022-08-04T19:38:03.869Z,967.92
2022-08-04T19:38:59.963Z,967.90
2022-08-04T19:39:59.954Z,967.93
2022-08-04T19:40:59.995Z,967.91
2022-08-04T19:43:12.056Z,967.95
2022-08-04T19:44:00.139Z,967.97
2022-08-04T19:45:00.227Z,967.95
2022-08-04T19:46:00.263Z,967.96
2022-08-04T19:47:00.720Z,967.96
2022-08-04T19:48:15.940Z,967.96
2022-08-04T19:49:00.818Z,968.02
2022-08-04T19:50:04.881Z,968.01
2022-08-04T19:51:00.521Z,967.99
2022-08-04T19:52:00.613Z,968.02
2022-08-04T19:53:00.635Z,968.03
2022-08-04T19:54:03.948Z,968.03
2022-08-04T19:55:00.764Z,968.07
2022-08-04T19:56:00.830Z,968.05
2022-08-04T19:57:00.890Z,968.07
2022-08-04T19:58:00.913Z,968.02
2022-08-04T19:59:01.006Z,968.05
2022-08-04T20:00:01.014Z,968.08
2022-08-04T20:01:01.132Z,968.11
2022-08-04T20:02:01.152Z,968.10
2022-08-04T20:03:01.182Z,968.09
2022-08-04T20:04:09.751Z,968.13
2022-08-04T20:05:01.309Z,968.15
2022-08-04T20:06:01.473Z,968.13
2022-08-04T20:07:01.427Z,968.16
2022-08-04T20:08:01.464Z,968.18
2022-08-04T20:09:01.521Z,968.16
2022-08-04T20:10:04.601Z,968.12
2022-08-04T20:11:01.649Z,968.15
2022-08-04T20:12:01.676Z,968.21
2022-08-04T20:13:01.740Z,968.22
2022-08-04T20:14:02.306Z,968.21
2022-08-04T20:15:01.881Z,968.17
2022-08-04T22:02:18.801Z,968.28
2022-08-04T22:02:52.914Z,968.29
2022-08-04T22:03:57.231Z,968.29
2022-08-04T22:04:50.842Z,968.32
2022-08-04T22:05:51.714Z,968.34
2022-08-04T22:06:52.685Z,968.35
2022-08-04T22:07:58.748Z,968.34
2022-08-04T22:08:52.046Z,968.33
2022-08-04T22:10:02.218Z,968.37
2022-08-04T22:10:52.537Z,968.34
2022-08-04T22:12:07.039Z,968.33
2022-08-04T22:12:52.185Z,968.32
2022-08-04T22:14:11.617Z,968.29
2022-08-04T22:14:57.703Z,968.28
2022-08-04T22:16:03.917Z,968.27
2022-08-04T22:16:52.208Z,968.27
2022-08-04T22:17:51.688Z,968.27
2022-08-04T22:18:53.986Z,968.29
2022-08-04T22:19:56.367Z,968.28
2022-08-04T22:20:54.685Z,968.28
2022-08-04T22:21:58.783Z,968.24
2022-08-04T22:23:16.869Z,968.25
2022-08-04T22:24:13.780Z,968.28
2022-08-04T22:24:52.135Z,968.28
2022-08-04T22:25:55.850Z,968.25
2022-08-04T22:26:52.778Z,968.29
2022-08-04T22:27:55.108Z,968.26
2022-08-04T22:28:59.983Z,968.27
2022-08-04T22:29:53.139Z,968.22
2022-08-04T22:31:24.388Z,968.22
2022-08-04T22:31:56.896Z,968.24
